Time;durP1;ratioP1;P1;durP2;ratioP2;P2;SDS_P1;SDS_P2;PMS_P1;PMS_P2;Temp;Humidity;BMP_temperature;BMP_pressure;BME280_temperature;BME280_humidity;BME280_pressure;Samples;Min_cycle;Max_cycle;Signal;HPM_P1;HPM_P2
2021/12/07 00:01:14;;;;;;;11.35;9.23;;;;;;;;;;5066574;28;20196;-68
2021/12/07 00:03:41;;;;;;;11.20;9.43;;;;;;;;;;5062950;28;20196;-68
2021/12/07 00:06:08;;;;;;;12.73;8.85;;;;;;;;;;5062257;28;20197;-69
2021/12/07 00:08:35;;;;;;;10.90;8.55;;;;;;;;;;5063208;28;20211;-69
2021/12/07 00:11:02;;;;;;;10.15;8.25;;;;;;;;;;5073497;28;20205;-69
2021/12/07 00:13:33;;;;;;;10.75;7.57;;;;;;;;;;5082530;28;20242;-69
2021/12/07 00:16:00;;;;;;;9.57;7.57;;;;;;;;;;5082659;28;20204;-66
2021/12/07 00:18:27;;;;;;;8.80;7.57;;;;;;;;;;5082379;28;20550;-65
2021/12/07 00:20:53;;;;;;;10.57;7.63;;;;;;;;;;5068886;28;20197;-65
2021/12/07 00:23:20;;;;;;;10.73;8.55;;;;;;;;;;5062204;28;20220;-66
2021/12/07 00:25:46;;;;;;;12.18;8.50;;;;;;;;;;5062035;28;20227;-66
2021/12/07 00:28:13;;;;;;;11.10;8.00;;;;;;;;;;5063386;28;20377;-66
2021/12/07 00:30:39;;;;;;;10.95;8.02;;;;;;;;;;5062086;28;20197;-66
2021/12/07 00:33:13;;;;;;;10.35;8.25;;;;;;;;;;5062129;28;20201;-66
2021/12/07 00:35:39;;;;;;;8.82;7.93;;;;;;;;;;5062840;28;20240;-65
2021/12/07 00:38:07;;;;;;;11.38;7.50;;;;;;;;;;5079950;28;20197;-66
2021/12/07 00:40:34;;;;;;;15.63;9.20;;;;;;;;;;5085529;28;20212;-65
2021/12/07 00:43:00;;;;;;;16.80;9.57;;;;;;;;;;5086029;28;20262;-65
2021/12/07 00:45:28;;;;;;;18.63;9.18;;;;;;;;;;5085732;28;20212;-66
2021/12/07 00:47:55;;;;;;;14.73;9.25;;;;;;;;;;5071232;28;20501;-68
2021/12/07 00:50:23;;;;;;;11.70;9.25;;;;;;;;;;5067143;28;20185;-65
2021/12/07 00:52:50;;;;;;;13.05;8.93;;;;;;;;;;5065896;28;20235;-66
2021/12/07 00:55:19;;;;;;;13.10;8.70;;;;;;;;;;5065297;28;20217;-65
2021/12/07 00:57:45;;;;;;;13.98;8.80;;;;;;;;;;5078493;28;20192;-65
2021/12/07 01:00:13;;;;;;;13.00;8.65;;;;;;;;;;5085661;28;20254;-66
2021/12/07 01:02:39;;;;;;;11.15;8.85;;;;;;;;;;5085196;28;20211;-66
2021/12/07 01:05:10;;;;;;;13.27;9.15;;;;;;;;;;5074982;28;20485;-66
2021/12/07 01:07:55;;;;;;;9.98;8.68;;;;;;;;;;5077001;28;20180;-65
2021/12/07 01:26:59;;;;;;;7.65;6.82;;;;;;;;;;5023430;28;20202;-67
2021/12/07 01:29:27;;;;;;;6.10;5.53;;;;;;;;;;5054418;28;20228;-66
2021/12/07 01:32:04;;;;;;;4.90;4.50;;;;;;;;;;5064716;28;20201;-66
2021/12/07 01:34:57;;;;;;;6.18;4.30;;;;;;;;;;5064529;28;20196;-66
2021/12/07 01:37:36;;;;;;;5.47;4.07;;;;;;;;;;5066244;28;20181;-66
2021/12/07 01:40:29;;;;;;;4.10;3.78;;;;;;;;;;5064907;28;20207;-66
2021/12/07 01:43:26;;;;;;;4.35;4.03;;;;;;;;;;5064595;28;20197;-66
2021/12/07 01:46:03;;;;;;;3.97;3.72;;;;;;;;;;5064035;28;20219;-66
2021/12/07 01:59:33;;;;;;;3.47;3.28;;;;;;;;;;5084560;28;20203;-66
2021/12/07 02:02:00;;;;;;;3.17;3.08;;;;;;;;;;5084388;28;20196;-66
2021/12/07 02:04:27;;;;;;;3.00;2.90;;;;;;;;;;5083869;28;20227;-66
2021/12/07 02:06:53;;;;;;;3.20;3.10;;;;;;;;;;5079660;28;20189;-68
2021/12/07 02:09:20;;;;;;;3.17;3.05;;;;;;;;;;5064908;28;20204;-68
2021/12/07 02:11:50;;;;;;;3.33;3.13;;;;;;;;;;5078122;28;20203;-68
2021/12/07 02:14:17;;;;;;;3.20;2.92;;;;;;;;;;5084631;28;20516;-69
2021/12/07 02:16:45;;;;;;;2.85;2.75;;;;;;;;;;5080612;28;20215;-68
2021/12/07 02:19:11;;;;;;;4.07;2.83;;;;;;;;;;5064327;28;20197;-68
2021/12/07 02:21:39;;;;;;;2.78;2.67;;;;;;;;;;5063769;28;20197;-68
2021/12/07 02:24:06;;;;;;;2.95;2.85;;;;;;;;;;5063991;28;20201;-68
2021/12/07 02:26:32;;;;;;;3.05;2.85;;;;;;;;;;5064475;28;20193;-66
2021/12/07 02:28:59;;;;;;;3.47;3.17;;;;;;;;;;5083727;28;20245;-66
2021/12/07 02:31:25;;;;;;;3.40;3.20;;;;;;;;;;5075092;28;20193;-66
2021/12/07 02:33:52;;;;;;;2.80;2.70;;;;;;;;;;5062861;28;20227;-66
2021/12/07 02:36:18;;;;;;;3.55;2.60;;;;;;;;;;5063262;28;20217;-66
2021/12/07 02:38:46;;;;;;;2.95;2.83;;;;;;;;;;5080050;28;20239;-66
2021/12/07 02:41:12;;;;;;;3.20;3.00;;;;;;;;;;5083552;28;20243;-66
2021/12/07 02:43:39;;;;;;;3.10;2.90;;;;;;;;;;5083602;28;20242;-66
2021/12/07 02:46:05;;;;;;;3.22;2.92;;;;;;;;;;5078230;28;20209;-68
2021/12/07 02:48:32;;;;;;;3.30;3.10;;;;;;;;;;5079135;28;20196;-68
2021/12/07 02:50:58;;;;;;;2.70;2.60;;;;;;;;;;5085129;28;20242;-68
2021/12/07 02:53:26;;;;;;;2.75;2.65;;;;;;;;;;5084933;28;20189;-68
2021/12/07 02:55:55;;;;;;;3.10;2.90;;;;;;;;;;5082809;28;20255;-68
2021/12/07 02:58:22;;;;;;;2.53;2.42;;;;;;;;;;5070401;28;20258;-68
2021/12/07 03:00:56;;;;;;;2.92;2.80;;;;;;;;;;5062699;28;20224;-68
2021/12/07 03:03:22;;;;;;;2.92;2.80;;;;;;;;;;5063182;28;20197;-66
2021/12/07 03:05:58;;;;;;;4.28;2.80;;;;;;;;;;5062942;28;20193;-66
2021/12/07 03:09:13;;;;;;;2.95;2.75;;;;;;;;;;5075813;28;20346;-66
2021/12/07 03:28:05;;;;;;;2.60;2.03;;;;;;;;;;5073194;28;20201;-65
2021/12/07 03:30:32;;;;;;;2.47;2.38;;;;;;;;;;5062677;28;20228;-66
2021/12/07 03:32:59;;;;;;;2.58;2.47;;;;;;;;;;5062693;28;20392;-65
2021/12/07 03:35:26;;;;;;;2.55;2.55;;;;;;;;;;5062518;28;20213;-66
2021/12/07 03:37:53;;;;;;;2.50;2.40;;;;;;;;;;5073181;28;20500;-66
2021/12/07 03:40:20;;;;;;;2.80;2.70;;;;;;;;;;5082611;28;20196;-66
2021/12/07 03:42:46;;;;;;;2.78;2.60;;;;;;;;;;5066878;28;20197;-66
2021/12/07 03:45:14;;;;;;;2.40;2.30;;;;;;;;;;5062081;28;20259;-66
2021/12/07 03:47:40;;;;;;;2.42;2.30;;;;;;;;;;5070855;28;20196;-66
2021/12/07 03:50:08;;;;;;;2.20;2.17;;;;;;;;;;5082772;28;20238;-65
2021/12/07 03:52:34;;;;;;;2.47;2.38;;;;;;;;;;5082766;28;20231;-66
2021/12/07 03:55:01;;;;;;;2.42;2.22;;;;;;;;;;5082180;28;20366;-66
2021/12/07 03:57:27;;;;;;;2.28;2.17;;;;;;;;;;5075344;28;20220;-66
2021/12/07 03:59:54;;;;;;;2.65;2.45;;;;;;;;;;5066412;28;20196;-66
2021/12/07 04:02:22;;;;;;;2.35;2.25;;;;;;;;;;5083276;28;20199;-66
2021/12/07 04:04:52;;;;;;;2.45;2.25;;;;;;;;;;5082587;28;20318;-66
2021/12/07 04:07:19;;;;;;;2.20;2.10;;;;;;;;;;5082177;28;20503;-66
2021/12/07 04:09:45;;;;;;;2.50;2.40;;;;;;;;;;5081000;28;20542;-66
2021/12/07 04:12:12;;;;;;;2.63;2.42;;;;;;;;;;5066249;28;20566;-66
2021/12/07 04:14:38;;;;;;;2.30;2.20;;;;;;;;;;5077789;28;20192;-66
2021/12/07 04:17:04;;;;;;;2.00;1.90;;;;;;;;;;5086457;28;20216;-66
2021/12/07 04:19:32;;;;;;;2.25;2.05;;;;;;;;;;5086459;28;20424;-66
2021/12/07 04:21:59;;;;;;;2.25;2.15;;;;;;;;;;5066771;28;20196;-66
2021/12/07 04:24:27;;;;;;;1.98;1.90;;;;;;;;;;5066304;28;20512;-66
2021/12/07 04:26:54;;;;;;;1.83;1.73;;;;;;;;;;5066102;28;20185;-66
2021/12/07 04:29:20;;;;;;;2.22;2.10;;;;;;;;;;5066194;28;20209;-66
2021/12/07 04:31:47;;;;;;;2.13;2.08;;;;;;;;;;5083380;28;20234;-66
2021/12/07 04:34:13;;;;;;;1.70;1.70;;;;;;;;;;5085997;28;20251;-66
2021/12/07 04:36:41;;;;;;;1.92;1.83;;;;;;;;;;5085309;28;20216;-66
2021/12/07 04:39:08;;;;;;;2.22;2.13;;;;;;;;;;5082829;28;20231;-66
2021/12/07 04:41:35;;;;;;;2.35;2.17;;;;;;;;;;5081239;28;20436;-66
2021/12/07 04:44:03;;;;;;;1.90;1.80;;;;;;;;;;5085361;28;20228;-66
2021/12/07 04:46:35;;;;;;;3.13;2.92;;;;;;;;;;5085380;28;20220;-66
2021/12/07 05:00:03;;;;;;;2.28;2.10;;;;;;;;;;5067222;28;20508;-66
2021/12/07 05:02:30;;;;;;;1.92;1.80;;;;;;;;;;5085361;28;20196;-66
2021/12/07 05:04:57;;;;;;;1.73;1.63;;;;;;;;;;5079843;28;20201;-66
2021/12/07 05:07:31;;;;;;;1.55;1.55;;;;;;;;;;5065346;28;20415;-66
2021/12/07 05:15:56;;;;;;;1.83;1.83;;;;;;;;;;5074264;28;20188;-66
2021/12/07 05:18:36;;;;;;;1.80;1.70;;;;;;;;;;5084890;28;20204;-66
2021/12/07 05:23:57;;;;;;;2.58;1.73;;;;;;;;;;5064188;28;20200;-66
2021/12/07 05:37:42;;;;;;;1.60;1.60;;;;;;;;;;5084934;28;20298;-65
2021/12/07 05:37:47;;;;;;;1.73;1.73;;;;;;;;;;5084621;28;20287;-65
2021/12/07 05:40:16;;;;;;;1.40;1.30;;;;;;;;;;5081457;28;20194;-65
2021/12/07 05:42:42;;;;;;;1.40;1.40;;;;;;;;;;5064750;28;20202;-65
2021/12/07 05:45:11;;;;;;;2.03;1.70;;;;;;;;;;5064236;28;20217;-67
2021/12/07 05:47:37;;;;;;;2.58;2.35;;;;;;;;;;5064811;28;20535;-66
2021/12/07 05:50:04;;;;;;;1.40;1.30;;;;;;;;;;5065778;28;20390;-66
2021/12/07 05:52:30;;;;;;;2.15;1.48;;;;;;;;;;5084408;28;20519;-66
2021/12/07 05:54:57;;;;;;;2.15;1.05;;;;;;;;;;5084152;28;20219;-66
2021/12/07 05:57:25;;;;;;;2.47;1.20;;;;;;;;;;5067759;28;20223;-66
2021/12/07 05:59:51;;;;;;;0.73;0.73;;;;;;;;;;5064439;28;20197;-66
2021/12/07 06:02:17;;;;;;;1.30;1.30;;;;;;;;;;5083560;28;20196;-66
2021/12/07 06:04:44;;;;;;;2.78;1.23;;;;;;;;;;5084114;28;20207;-66
2021/12/07 06:07:10;;;;;;;2.38;0.80;;;;;;;;;;5084052;28;20493;-66
2021/12/07 06:09:37;;;;;;;4.45;3.70;;;;;;;;;;5084137;28;20249;-66
2021/12/07 06:12:04;;;;;;;4.13;1.38;;;;;;;;;;5066950;28;20352;-66
2021/12/07 06:14:35;;;;;;;1.02;1.00;;;;;;;;;;5064072;28;20197;-66
2021/12/07 06:17:01;;;;;;;1.33;1.00;;;;;;;;;;5063866;28;20239;-66
2021/12/07 06:19:28;;;;;;;1.33;0.80;;;;;;;;;;5063829;28;20197;-66
2021/12/07 06:21:55;;;;;;;1.55;1.25;;;;;;;;;;5076936;28;20205;-65
2021/12/07 06:24:21;;;;;;;2.17;0.93;;;;;;;;;;5084188;28;20230;-65
2021/12/07 06:26:48;;;;;;;0.90;0.90;;;;;;;;;;5083712;28;20370;-66
2021/12/07 06:29:14;;;;;;;2.85;1.98;;;;;;;;;;5083647;28;20197;-66
2021/12/07 06:31:42;;;;;;;2.13;1.45;;;;;;;;;;5070057;28;20193;-65
2021/12/07 06:34:10;;;;;;;1.35;1.35;;;;;;;;;;5070712;28;20231;-66
2021/12/07 06:36:37;;;;;;;2.78;1.33;;;;;;;;;;5082950;28;20224;-66
2021/12/07 06:39:04;;;;;;;1.08;1.08;;;;;;;;;;5083380;28;20197;-68
2021/12/07 06:41:30;;;;;;;4.18;1.23;;;;;;;;;;5079146;28;20209;-68
2021/12/07 06:43:57;;;;;;;1.30;0.82;;;;;;;;;;5083726;28;20196;-68
2021/12/07 06:46:23;;;;;;;1.25;1.10;;;;;;;;;;5083053;28;20212;-68
2021/12/07 06:48:51;;;;;;;2.25;1.02;;;;;;;;;;5083641;28;20200;-68
2021/12/07 06:51:17;;;;;;;1.40;1.30;;;;;;;;;;5073589;28;20194;-68
2021/12/07 06:53:44;;;;;;;0.90;0.90;;;;;;;;;;5064347;28;20197;-68
2021/12/07 06:56:10;;;;;;;1.55;0.90;;;;;;;;;;5082901;28;20208;-68
2021/12/07 06:58:37;;;;;;;1.02;1.02;;;;;;;;;;5083078;28;20218;-68
2021/12/07 07:01:06;;;;;;;22.98;10.20;;;;;;;;;;5075422;28;20189;-68
2021/12/07 07:03:32;;;;;;;18.35;8.30;;;;;;;;;;5063115;28;20204;-68
2021/12/07 07:06:00;;;;;;;31.88;12.02;;;;;;;;;;5062680;28;20205;-68
2021/12/07 07:08:26;;;;;;;51.38;25.25;;;;;;;;;;5079785;28;20500;-68
2021/12/07 07:10:53;;;;;;;3.83;2.35;;;;;;;;;;5077138;28;20212;-68
2021/12/07 07:13:19;;;;;;;8.07;4.75;;;;;;;;;;5062907;28;20197;-68
2021/12/07 07:15:46;;;;;;;2.00;1.80;;;;;;;;;;5063695;28;20240;-68
2021/12/07 07:18:12;;;;;;;2.97;2.28;;;;;;;;;;5062984;28;20224;-68
2021/12/07 07:20:39;;;;;;;6.90;1.38;;;;;;;;;;5066202;28;20485;-68
2021/12/07 07:23:07;;;;;;;1.95;1.40;;;;;;;;;;5083094;28;20347;-68
2021/12/07 07:25:33;;;;;;;5.00;1.77;;;;;;;;;;5079121;28;20212;-68
2021/12/07 07:28:00;;;;;;;2.60;1.42;;;;;;;;;;5062632;28;20458;-68
2021/12/07 07:30:27;;;;;;;1.77;1.65;;;;;;;;;;5073022;28;20238;-68
2021/12/07 07:32:53;;;;;;;4.53;2.28;;;;;;;;;;5082692;28;20516;-68
2021/12/07 07:35:21;;;;;;;6.38;2.60;;;;;;;;;;5063026;28;20563;-68
2021/12/07 07:37:47;;;;;;;6.28;2.78;;;;;;;;;;5062465;28;20217;-68
2021/12/07 07:40:16;;;;;;;3.17;2.47;;;;;;;;;;5069846;28;20192;-68
2021/12/07 07:42:42;;;;;;;2.25;1.98;;;;;;;;;;5082909;28;20325;-68
2021/12/07 07:45:09;;;;;;;1.92;1.65;;;;;;;;;;5081977;28;20223;-68
2021/12/07 07:47:36;;;;;;;4.45;1.73;;;;;;;;;;5064416;28;20239;-54
2021/12/07 07:50:03;;;;;;;2.05;1.77;;;;;;;;;;5082380;28;20197;-55
2021/12/07 07:52:29;;;;;;;2.75;1.80;;;;;;;;;;5071647;28;20208;-54
2021/12/07 07:54:56;;;;;;;3.45;1.85;;;;;;;;;;5066514;28;20215;-53
2021/12/07 07:57:24;;;;;;;3.28;1.98;;;;;;;;;;5075048;28;20224;-53
2021/12/07 07:59:50;;;;;;;7.47;2.00;;;;;;;;;;5074921;28;20274;-54
2021/12/07 08:02:17;;;;;;;2.40;2.20;;;;;;;;;;5056020;28;20220;-52
2021/12/07 08:04:43;;;;;;;5.18;2.25;;;;;;;;;;5061661;28;20208;-52
2021/12/07 08:07:10;;;;;;;2.40;1.92;;;;;;;;;;5074696;28;20247;-53
2021/12/07 08:09:36;;;;;;;5.80;2.10;;;;;;;;;;5058176;28;20205;-53
2021/12/07 08:12:05;;;;;;;2.28;1.90;;;;;;;;;;5073990;28;20226;-54
2021/12/07 08:14:33;;;;;;;7.03;2.17;;;;;;;;;;5056147;28;20236;-54
2021/12/07 08:16:59;;;;;;;2.22;1.73;;;;;;;;;;5056373;28;20268;-54
2021/12/07 08:19:26;;;;;;;4.38;2.60;;;;;;;;;;5069747;28;20435;-53
2021/12/07 08:21:52;;;;;;;3.08;2.00;;;;;;;;;;5076435;28;20208;-54
2021/12/07 08:24:18;;;;;;;5.75;2.20;;;;;;;;;;5064064;28;20403;-53
2021/12/07 08:26:45;;;;;;;5.72;2.55;;;;;;;;;;5056116;28;20201;-54
2021/12/07 08:29:12;;;;;;;3.47;2.22;;;;;;;;;;5067377;28;20615;-54
2021/12/07 08:31:40;;;;;;;2.90;1.98;;;;;;;;;;5076316;28;20532;-54
2021/12/07 08:34:06;;;;;;;2.20;2.00;;;;;;;;;;5074013;28;20201;-53
2021/12/07 08:36:33;;;;;;;2.75;2.22;;;;;;;;;;5072722;28;20254;-54
2021/12/07 08:39:00;;;;;;;3.05;2.78;;;;;;;;;;5071316;28;20438;-53
2021/12/07 08:41:26;;;;;;;2.78;2.45;;;;;;;;;;5068436;28;20559;-52
2021/12/07 08:43:53;;;;;;;3.97;2.30;;;;;;;;;;5055761;28;20210;-54
2021/12/07 08:46:20;;;;;;;5.20;2.20;;;;;;;;;;5056842;28;20225;-54
2021/12/07 08:48:47;;;;;;;3.05;1.90;;;;;;;;;;5063024;28;20288;-54
2021/12/07 08:51:15;;;;;;;2.05;1.77;;;;;;;;;;5056264;28;20201;-53
2021/12/07 08:53:48;;;;;;;6.50;1.52;;;;;;;;;;5055049;28;20212;-52
2021/12/07 09:01:42;;;;;;;3.05;1.70;;;;;;;;;;5079186;28;20218;-54
2021/12/07 09:04:13;;;;;;;1.33;1.33;;;;;;;;;;5072997;28;20290;-54
2021/12/07 09:06:39;;;;;;;5.00;1.80;;;;;;;;;;5078348;28;20240;-55
2021/12/07 09:09:06;;;;;;;5.32;1.70;;;;;;;;;;5078821;28;20428;-54
2021/12/07 09:11:32;;;;;;;2.08;1.83;;;;;;;;;;5078666;28;20280;-54
2021/12/07 09:13:58;;;;;;;2.63;1.83;;;;;;;;;;5077523;28;20231;-53
2021/12/07 09:16:25;;;;;;;1.75;1.52;;;;;;;;;;5075853;28;20386;-54
2021/12/07 09:18:51;;;;;;;5.22;1.92;;;;;;;;;;5077611;28;20228;-53
2021/12/07 09:21:20;;;;;;;2.80;1.90;;;;;;;;;;5078120;28;20510;-53
2021/12/07 09:23:47;;;;;;;2.50;1.65;;;;;;;;;;5065675;28;20221;-53
2021/12/07 09:26:13;;;;;;;3.28;1.70;;;;;;;;;;5057785;28;20643;-54
2021/12/07 09:28:41;;;;;;;3.03;1.75;;;;;;;;;;5058221;28;20404;-54
2021/12/07 09:31:09;;;;;;;2.75;1.90;;;;;;;;;;5059891;28;20200;-55
2021/12/07 09:33:35;;;;;;;4.72;2.10;;;;;;;;;;5057508;28;20582;-55
2021/12/07 09:36:02;;;;;;;3.65;1.70;;;;;;;;;;5057422;28;20406;-54
2021/12/07 09:38:29;;;;;;;3.80;2.28;;;;;;;;;;5067394;28;20228;-54
2021/12/07 09:40:56;;;;;;;4.55;2.20;;;;;;;;;;5062821;28;20224;-53
2021/12/07 09:43:22;;;;;;;3.10;2.90;;;;;;;;;;5077461;28;20330;-54
2021/12/07 09:45:51;;;;;;;5.13;3.22;;;;;;;;;;5076987;28;20567;-53
2021/12/07 09:48:18;;;;;;;4.05;2.90;;;;;;;;;;5077039;28;20220;-54
2021/12/07 09:50:46;;;;;;;2.20;2.00;;;;;;;;;;5077622;28;20542;-53
2021/12/07 09:53:14;;;;;;;4.22;2.13;;;;;;;;;;5075648;28;20216;-55
2021/12/07 09:55:42;;;;;;;6.43;2.17;;;;;;;;;;5056732;28;20209;-54
2021/12/07 09:58:09;;;;;;;5.28;2.80;;;;;;;;;;5057107;28;20224;-56
2021/12/07 10:00:36;;;;;;;2.83;2.15;;;;;;;;;;5057331;28;20513;-56
2021/12/07 10:03:03;;;;;;;7.68;2.35;;;;;;;;;;5057351;28;20308;-55
2021/12/07 10:05:31;;;;;;;5.90;2.60;;;;;;;;;;5056738;28;20205;-55
2021/12/07 10:07:58;;;;;;;5.88;2.13;;;;;;;;;;5076810;28;20276;-55
2021/12/07 10:10:26;;;;;;;2.33;1.35;;;;;;;;;;5076971;28;20500;-55
2021/12/07 10:12:54;;;;;;;2.85;1.52;;;;;;;;;;5067153;28;20267;-54
2021/12/07 10:15:20;;;;;;;11.25;1.63;;;;;;;;;;5057692;28;20251;-54
2021/12/07 10:17:59;;;;;;;5.47;1.48;;;;;;;;;;5057284;28;20232;-54
2021/12/07 10:20:31;;;;;;;3.58;1.67;;;;;;;;;;5057041;28;20209;-53
2021/12/07 10:23:02;;;;;;;3.72;1.50;;;;;;;;;;5056686;28;20251;-53
2021/12/07 10:25:28;;;;;;;2.83;1.17;;;;;;;;;;5056015;28;20276;-53
2021/12/07 10:27:57;;;;;;;3.03;2.17;;;;;;;;;;5057173;28;20407;-54
2021/12/07 10:30:24;;;;;;;2.85;1.48;;;;;;;;;;5056907;28;20209;-55
2021/12/07 10:32:58;;;;;;;7.00;1.80;;;;;;;;;;5057028;28;20259;-54
2021/12/07 10:35:28;;;;;;;6.10;4.03;;;;;;;;;;5056098;28;20216;-54
2021/12/07 10:38:09;;;;;;;3.55;1.98;;;;;;;;;;5057135;28;20228;-55
2021/12/07 10:40:35;;;;;;;7.43;1.52;;;;;;;;;;5056300;28;20216;-54
2021/12/07 10:43:03;;;;;;;5.90;2.40;;;;;;;;;;5066896;28;20262;-54
2021/12/07 10:45:30;;;;;;;5.68;2.50;;;;;;;;;;5073861;28;20410;-54
2021/12/07 10:47:56;;;;;;;3.33;1.67;;;;;;;;;;5076137;28;20522;-56
2021/12/07 10:50:23;;;;;;;5.43;1.45;;;;;;;;;;5076093;28;20212;-55
2021/12/07 10:52:50;;;;;;;4.47;1.50;;;;;;;;;;5075855;28;20235;-53
2021/12/07 10:55:17;;;;;;;5.25;2.03;;;;;;;;;;5075738;28;20583;-54
2021/12/07 10:57:45;;;;;;;2.97;1.23;;;;;;;;;;5075962;28;20681;-52
2021/12/07 11:00:16;;;;;;;3.70;1.30;;;;;;;;;;5069576;28;20422;-53
2021/12/07 11:02:44;;;;;;;2.47;1.20;;;;;;;;;;5074826;28;20271;-55
2021/12/07 11:05:11;;;;;;;6.93;4.50;;;;;;;;;;5075180;28;20474;-54
2021/12/07 11:07:38;;;;;;;11.07;4.68;;;;;;;;;;5068527;28;20246;-55
2021/12/07 11:10:08;;;;;;;2.25;1.50;;;;;;;;;;5074477;28;20235;-55
2021/12/07 11:12:41;;;;;;;2.30;1.60;;;;;;;;;;5075814;28;20476;-55
2021/12/07 11:15:15;;;;;;;3.97;1.92;;;;;;;;;;5075042;28;20250;-55
2021/12/07 11:17:43;;;;;;;3.88;1.42;;;;;;;;;;5065900;28;20564;-56
2021/12/07 11:20:11;;;;;;;3.25;1.40;;;;;;;;;;5060607;28;20243;-54
2021/12/07 11:22:40;;;;;;;6.43;1.98;;;;;;;;;;5055967;28;20251;-53
2021/12/07 11:25:08;;;;;;;5.85;1.48;;;;;;;;;;5069901;28;20204;-55
2021/12/07 11:30:20;;;;;;;4.45;1.48;;;;;;;;;;5076245;28;20242;-53
2021/12/07 11:32:51;;;;;;;2.95;1.65;;;;;;;;;;5070600;28;20270;-54
2021/12/07 11:35:19;;;;;;;4.97;1.52;;;;;;;;;;5055440;28;20209;-55
2021/12/07 11:37:46;;;;;;;3.05;1.35;;;;;;;;;;5055663;28;20646;-53
2021/12/07 11:40:13;;;;;;;2.90;1.17;;;;;;;;;;5056184;28;20209;-55
2021/12/07 11:42:42;;;;;;;4.32;1.38;;;;;;;;;;5055700;28;20212;-55
2021/12/07 11:45:10;;;;;;;5.78;1.48;;;;;;;;;;5060041;28;20244;-56
2021/12/07 11:47:39;;;;;;;4.70;1.50;;;;;;;;;;5075745;28;20208;-56
2021/12/07 11:50:13;;;;;;;7.90;1.70;;;;;;;;;;5076203;28;20535;-56
2021/12/07 11:52:40;;;;;;;4.97;1.10;;;;;;;;;;5075947;28;20251;-54
2021/12/07 11:55:07;;;;;;;6.90;1.38;;;;;;;;;;5075384;28;20208;-56
2021/12/07 11:57:34;;;;;;;5.20;1.33;;;;;;;;;;5074922;28;20211;-55
2021/12/07 12:00:03;;;;;;;6.57;3.22;;;;;;;;;;5072320;28;20205;-55
2021/12/07 12:02:29;;;;;;;3.85;1.23;;;;;;;;;;5064378;28;20219;-53
2021/12/07 12:04:56;;;;;;;2.30;1.20;;;;;;;;;;5074122;28;20223;-53
2021/12/07 12:07:24;;;;;;;4.90;1.30;;;;;;;;;;5074067;28;20532;-55
2021/12/07 12:09:52;;;;;;;5.60;1.50;;;;;;;;;;5064638;28;20403;-55
2021/12/07 12:12:23;;;;;;;2.90;1.50;;;;;;;;;;5075107;28;20345;-54
2021/12/07 12:14:53;;;;;;;2.42;1.92;;;;;;;;;;5064368;28;20216;-53
2021/12/07 12:17:32;;;;;;;4.13;1.23;;;;;;;;;;5069851;28;20205;-54
2021/12/07 12:20:11;;;;;;;5.68;1.58;;;;;;;;;;5069731;28;20200;-54
2021/12/07 12:22:41;;;;;;;3.50;1.50;;;;;;;;;;5055683;28;20212;-53
2021/12/07 12:25:08;;;;;;;4.75;1.38;;;;;;;;;;5055296;28;20209;-53
2021/12/07 12:27:37;;;;;;;2.00;0.95;;;;;;;;;;5055422;28;20407;-54
2021/12/07 12:30:05;;;;;;;3.90;1.75;;;;;;;;;;5056912;28;20481;-53
2021/12/07 12:32:33;;;;;;;4.32;0.95;;;;;;;;;;5057455;28;20208;-53
2021/12/07 12:35:00;;;;;;;1.65;1.10;;;;;;;;;;5058941;28;20208;-54
2021/12/07 12:37:28;;;;;;;2.70;1.08;;;;;;;;;;5059464;28;20216;-55
2021/12/07 12:39:56;;;;;;;1.88;1.40;;;;;;;;;;5060336;28;20232;-55
2021/12/07 12:42:41;;;;;;;2.08;0.98;;;;;;;;;;5059103;28;20216;-56
2021/12/07 12:45:16;;;;;;;2.63;1.10;;;;;;;;;;5058530;28;20217;-56
2021/12/07 12:47:42;;;;;;;7.03;1.70;;;;;;;;;;5071024;28;20204;-56
2021/12/07 12:50:16;;;;;;;2.58;1.30;;;;;;;;;;5072275;28;20580;-56
2021/12/07 12:52:45;;;;;;;4.88;1.02;;;;;;;;;;5058809;28;20209;-56
2021/12/07 12:55:44;;;;;;;1.17;0.93;;;;;;;;;;5058467;28;20540;-56
2021/12/07 12:58:14;;;;;;;6.72;1.55;;;;;;;;;;5058976;28;20545;-56
2021/12/07 13:00:58;;;;;;;2.67;1.10;;;;;;;;;;5059384;28;20272;-56
2021/12/07 13:03:25;;;;;;;6.03;1.15;;;;;;;;;;5067067;28;20216;-55
2021/12/07 13:05:59;;;;;;;4.30;1.27;;;;;;;;;;5078214;28;20205;-56
2021/12/07 13:08:26;;;;;;;4.13;1.40;;;;;;;;;;5079171;28;20222;-57
2021/12/07 13:10:56;;;;;;;6.15;1.25;;;;;;;;;;5078947;28;20513;-56
2021/12/07 13:13:32;;;;;;;2.17;1.15;;;;;;;;;;5060411;28;20367;-56
2021/12/07 13:15:59;;;;;;;2.67;1.35;;;;;;;;;;5074049;28;20253;-56
2021/12/07 13:18:31;;;;;;;10.52;4.20;;;;;;;;;;5078801;28;20216;-56
2021/12/07 13:20:58;;;;;;;8.93;2.97;;;;;;;;;;5078247;28;20212;-55
2021/12/07 13:23:28;;;;;;;4.47;1.00;;;;;;;;;;5077810;28;20218;-53
2021/12/07 13:25:55;;;;;;;5.30;1.30;;;;;;;;;;5078123;28;20208;-55
2021/12/07 13:28:24;;;;;;;3.33;1.23;;;;;;;;;;5078616;28;20407;-54
2021/12/07 13:30:54;;;;;;;2.97;0.80;;;;;;;;;;5076855;28;20265;-54
2021/12/07 13:33:22;;;;;;;8.57;3.55;;;;;;;;;;5076587;28;20266;-54
2021/12/07 13:35:49;;;;;;;3.17;1.08;;;;;;;;;;5076676;28;20257;-54
2021/12/07 13:38:17;;;;;;;1.67;1.23;;;;;;;;;;5074092;28;20227;-53
2021/12/07 13:40:43;;;;;;;1.08;1.00;;;;;;;;;;5067937;28;20224;-53
2021/12/07 13:43:10;;;;;;;6.05;1.30;;;;;;;;;;5057070;28;20209;-54
2021/12/07 13:45:36;;;;;;;6.15;1.20;;;;;;;;;;5057846;28;20225;-55
2021/12/07 13:48:04;;;;;;;1.80;0.90;;;;;;;;;;5064344;28;20209;-54
2021/12/07 13:50:32;;;;;;;1.35;1.23;;;;;;;;;;5058276;28;20205;-56
2021/12/07 13:52:58;;;;;;;7.35;1.65;;;;;;;;;;5058056;28;20210;-55
2021/12/07 13:55:27;;;;;;;3.80;1.60;;;;;;;;;;5057927;28;20627;-55
2021/12/07 13:57:54;;;;;;;5.13;1.95;;;;;;;;;;5064829;28;20410;-55
2021/12/07 14:00:22;;;;;;;4.25;2.30;;;;;;;;;;5074745;28;20245;-55
2021/12/07 14:02:50;;;;;;;5.78;1.48;;;;;;;;;;5078058;28;20209;-54
2021/12/07 14:05:19;;;;;;;1.98;1.15;;;;;;;;;;5074789;28;20242;-54
2021/12/07 14:07:47;;;;;;;3.53;1.40;;;;;;;;;;5057644;28;20231;-53
2021/12/07 14:10:17;;;;;;;2.47;1.02;;;;;;;;;;5063601;28;20201;-53
2021/12/07 14:12:43;;;;;;;4.57;1.25;;;;;;;;;;5059437;28;20390;-54
2021/12/07 14:15:12;;;;;;;1.15;0.90;;;;;;;;;;5057260;28;20547;-55
2021/12/07 14:17:39;;;;;;;4.00;1.30;;;;;;;;;;5058199;28;20539;-55
2021/12/07 14:20:06;;;;;;;2.08;1.05;;;;;;;;;;5075831;28;20540;-53
2021/12/07 14:22:34;;;;;;;4.32;1.33;;;;;;;;;;5077262;28;20204;-54
2021/12/07 14:25:00;;;;;;;3.13;1.20;;;;;;;;;;5076787;28;20441;-55
2021/12/07 14:27:27;;;;;;;5.80;1.45;;;;;;;;;;5078015;28;20293;-55
2021/12/07 14:29:54;;;;;;;3.50;1.15;;;;;;;;;;5061551;28;20205;-54
2021/12/07 14:32:20;;;;;;;1.77;1.00;;;;;;;;;;5073108;28;20273;-54
2021/12/07 14:34:47;;;;;;;4.00;1.27;;;;;;;;;;5065922;28;20209;-54
2021/12/07 14:37:14;;;;;;;3.35;1.00;;;;;;;;;;5074838;28;20219;-55
2021/12/07 14:39:42;;;;;;;5.97;1.52;;;;;;;;;;5077359;28;20273;-56
2021/12/07 14:42:09;;;;;;;3.03;1.00;;;;;;;;;;5076675;28;20266;-53
2021/12/07 14:44:37;;;;;;;2.28;0.93;;;;;;;;;;5076624;28;20208;-53
2021/12/07 14:47:05;;;;;;;9.00;1.75;;;;;;;;;;5073928;28;20205;-53
2021/12/07 14:49:32;;;;;;;1.98;1.50;;;;;;;;;;5075819;28;20234;-54
2021/12/07 14:51:59;;;;;;;4.97;2.00;;;;;;;;;;5076528;28;20527;-55
2021/12/07 14:54:26;;;;;;;2.47;1.30;;;;;;;;;;5076308;28;20536;-54
2021/12/07 14:56:54;;;;;;;2.88;1.40;;;;;;;;;;5061245;28;20236;-57
2021/12/07 14:59:22;;;;;;;3.40;1.25;;;;;;;;;;5074461;28;20295;-57
2021/12/07 15:01:50;;;;;;;3.42;1.42;;;;;;;;;;5076752;28;20421;-56
2021/12/07 15:04:17;;;;;;;5.97;1.58;;;;;;;;;;5076454;28;20421;-55
2021/12/07 15:06:46;;;;;;;3.22;1.58;;;;;;;;;;5076334;28;20209;-54
2021/12/07 15:09:12;;;;;;;2.67;1.35;;;;;;;;;;5060668;28;20201;-56
2021/12/07 15:11:39;;;;;;;4.10;1.60;;;;;;;;;;5076867;28;20254;-54
2021/12/07 15:14:08;;;;;;;3.22;1.35;;;;;;;;;;5074541;28;20490;-55
2021/12/07 15:16:36;;;;;;;1.80;1.30;;;;;;;;;;5076190;28;20224;-55
2021/12/07 15:19:04;;;;;;;3.35;1.20;;;;;;;;;;5076537;28;20256;-54
2021/12/07 15:21:32;;;;;;;3.10;1.27;;;;;;;;;;5068777;28;20414;-55
2021/12/07 15:24:00;;;;;;;2.72;1.55;;;;;;;;;;5057342;28;20205;-54
2021/12/07 15:26:27;;;;;;;6.97;2.30;;;;;;;;;;5055969;28;20544;-54
2021/12/07 15:28:55;;;;;;;7.43;3.08;;;;;;;;;;5056374;28;20419;-55
2021/12/07 15:31:23;;;;;;;2.65;2.22;;;;;;;;;;5056637;28;20209;-53
2021/12/07 15:33:49;;;;;;;4.35;1.90;;;;;;;;;;5059925;28;20200;-55
2021/12/07 15:36:17;;;;;;;3.45;1.65;;;;;;;;;;5075690;28;20208;-56
2021/12/07 15:38:43;;;;;;;2.08;1.67;;;;;;;;;;5075946;28;20246;-55
2021/12/07 15:41:10;;;;;;;4.65;1.63;;;;;;;;;;5074457;28;20499;-65
2021/12/07 15:43:40;;;;;;;5.05;1.60;;;;;;;;;;5072667;28;20399;-65
2021/12/07 15:46:06;;;;;;;3.40;1.63;;;;;;;;;;5055657;28;20232;-65
2021/12/07 15:48:35;;;;;;;5.97;1.48;;;;;;;;;;5076148;28;20411;-65
2021/12/07 15:51:01;;;;;;;3.17;1.85;;;;;;;;;;5076284;28;20508;-65
2021/12/07 15:53:28;;;;;;;2.17;1.40;;;;;;;;;;5075523;28;20507;-65
2021/12/07 15:55:55;;;;;;;3.38;1.40;;;;;;;;;;5073895;28;20523;-65
2021/12/07 15:58:23;;;;;;;5.05;1.70;;;;;;;;;;5076094;28;20209;-65
2021/12/07 16:00:51;;;;;;;6.75;2.50;;;;;;;;;;5069508;28;20221;-65
2021/12/07 16:03:18;;;;;;;5.60;2.08;;;;;;;;;;5055614;28;20216;-65
2021/12/07 16:05:47;;;;;;;3.63;1.92;;;;;;;;;;5063867;28;20228;-65
2021/12/07 16:08:15;;;;;;;5.80;2.22;;;;;;;;;;5075871;28;20453;-65